Whiteoak, MO (63880)

3:45 PM CDT on August 27, 2016 (GMT -0500)
Farmers Union Gin, Senath, MO | | Change Station

Elev 253 ft 36.13 °N, 90.17 °W | Updated 47 seconds ago

Partly Cloudy
Partly Cloudy
90.1 °F
Feels Like 100 °F
N
4.3
Wind Variable Wind from North
Gusts 7.4 mph

Today
High -- | Low -- °F
--% Chance of Precip.
Yesterday
High -- | Low -- °F
Precip. -- in
Pressure 30.03 in
Visibility 10.0 miles
Clouds Few 3300 ft
Heat Index 100 °F
Dew Point 74 °F
Humidity 60%
Rainfall 0.00 in
Snow Depth Not available.
6:28 AM 7:34 PM
Waning Crescent, 21% visible
METAR KHKA 271953Z AUTO 24003KT 10SM FEW033 32/24 A3004 RMK AO2 SLP168 T03170244 $
Pressure 30.03 in
Visibility 10.0 miles
Clouds Few 3300 ft
Heat Index 100 °F
Dew Point 74 °F
Humidity 60%
Rainfall 0.00 in
Snow Depth Not available.
6:28 AM 7:34 PM
Waning Crescent, 21% visible
METAR KHKA 271953Z AUTO 24003KT 10SM FEW033 32/24 A3004 RMK AO2 SLP168 T03170244 $

10-Day Weather Forecast

Almanac

Astronomy

Aug. 27, 2016 Rise Set
Actual Time
Civil Twilight
Nautical Twilight
Astronomical Twilight
Moon
Length of Visible Light
Length of Day
Tomorrow will be .
, % of the Moon is Illuminated

Today's Extremes

State Highs State Lows

Community

WunderPhotos

Upload Photos

1,935,438 photos uploaded!

WunderBlog® & News

Nearby

Air Quality

  Air Quality AQ Index Pollutant
Not available.

Snow Depth

Station Depth Elevation

Earthquake Activity

City Distance Mag. Time & Date
Minimum magnitude displayed is 2.5.

Coastal Water Temperatures

Place Temperature

Stations

Nearby Weather Stations

Station Location Temp. Windchill Dew Point Humidity Wind Precip. Elev Updated Type
                   

Watches & Warnings

There are currently no watches in effect.